sensor_id;sensor_type;location;lat;lon;timestamp;pressure;altitude;pressure_sealevel;temperature;humidity
31483;BME280;18103;52.246;8.052;2022-11-14T00:00:35;100680.13;;;6.09;80.28
31483;BME280;18103;52.246;8.052;2022-11-14T00:03:05;100672.25;;;6.09;80.05
31483;BME280;18103;52.246;8.052;2022-11-14T00:05:32;100681.66;;;6.13;80.32
31483;BME280;18103;52.246;8.052;2022-11-14T00:07:57;100667.69;;;6.12;80.26
31483;BME280;18103;52.246;8.052;2022-11-14T00:10:26;100667.25;;;6.04;80.21
31483;BME280;18103;52.246;8.052;2022-11-14T00:12:51;100660.63;;;5.97;80.89
31483;BME280;18103;52.246;8.052;2022-11-14T00:15:17;100660.25;;;6.05;80.60
31483;BME280;18103;52.246;8.052;2022-11-14T00:17:43;100654.72;;;5.93;81.13
31483;BME280;18103;52.246;8.052;2022-11-14T00:20:10;100661.63;;;5.94;80.88
31483;BME280;18103;52.246;8.052;2022-11-14T00:22:35;100647.78;;;5.92;81.63
31483;BME280;18103;52.246;8.052;2022-11-14T00:25:01;100652.94;;;5.94;81.37
31483;BME280;18103;52.246;8.052;2022-11-14T00:27:32;100651.97;;;5.63;83.50
31483;BME280;18103;52.246;8.052;2022-11-14T00:29:57;100647.50;;;5.81;82.53
31483;BME280;18103;52.246;8.052;2022-11-14T00:32:23;100645.72;;;5.81;81.90
31483;BME280;18103;52.246;8.052;2022-11-14T00:34:51;100647.44;;;5.82;82.03
31483;BME280;18103;52.246;8.052;2022-11-14T00:37:17;100640.41;;;5.83;81.26
31483;BME280;18103;52.246;8.052;2022-11-14T00:39:42;100638.47;;;5.87;81.46
31483;BME280;18103;52.246;8.052;2022-11-14T00:42:08;100641.19;;;5.85;81.37
31483;BME280;18103;52.246;8.052;2022-11-14T00:44:33;100630.59;;;5.71;81.96
31483;BME280;18103;52.246;8.052;2022-11-14T00:46:58;100635.59;;;5.75;81.15
31483;BME280;18103;52.246;8.052;2022-11-14T00:49:24;100638.13;;;5.77;81.14
31483;BME280;18103;52.246;8.052;2022-11-14T00:51:52;100640.31;;;5.69;81.29
31483;BME280;18103;52.246;8.052;2022-11-14T00:54:18;100637.53;;;5.72;81.21
31483;BME280;18103;52.246;8.052;2022-11-14T00:56:43;100635.91;;;5.69;81.04
31483;BME280;18103;52.246;8.052;2022-11-14T00:59:08;100630.22;;;5.61;81.45
31483;BME280;18103;52.246;8.052;2022-11-14T01:01:34;100625.69;;;5.64;81.34
31483;BME280;18103;52.246;8.052;2022-11-14T01:03:59;100625.78;;;5.63;80.74
31483;BME280;18103;52.246;8.052;2022-11-14T01:06:25;100617.56;;;5.53;81.60
31483;BME280;18103;52.246;8.052;2022-11-14T01:08:51;100614.84;;;5.55;81.42
31483;BME280;18103;52.246;8.052;2022-11-14T01:11:18;100614.16;;;5.51;81.05
31483;BME280;18103;52.246;8.052;2022-11-14T01:13:44;100615.84;;;5.52;81.06
31483;BME280;18103;52.246;8.052;2022-11-14T01:16:10;100611.63;;;5.49;81.46
31483;BME280;18103;52.246;8.052;2022-11-14T01:18:37;100606.72;;;5.43;81.04
31483;BME280;18103;52.246;8.052;2022-11-14T01:21:08;100610.69;;;5.35;81.72
31483;BME280;18103;52.246;8.052;2022-11-14T01:23:35;100599.97;;;5.39;81.43
31483;BME280;18103;52.246;8.052;2022-11-14T01:26:06;100600.13;;;5.36;80.99
31483;BME280;18103;52.246;8.052;2022-11-14T01:28:32;100597.59;;;5.35;81.10
31483;BME280;18103;52.246;8.052;2022-11-14T01:31:20;100594.97;;;5.35;81.48
31483;BME280;18103;52.246;8.052;2022-11-14T01:33:50;100596.66;;;5.36;81.21
31483;BME280;18103;52.246;8.052;2022-11-14T01:36:16;100587.59;;;5.25;81.95
31483;BME280;18103;52.246;8.052;2022-11-14T01:38:45;100586.75;;;5.25;81.85
31483;BME280;18103;52.246;8.052;2022-11-14T01:41:14;100591.91;;;5.26;82.34
31483;BME280;18103;52.246;8.052;2022-11-14T01:43:41;100581.97;;;5.33;81.70
31483;BME280;18103;52.246;8.052;2022-11-14T01:46:25;100579.56;;;5.28;82.15
31483;BME280;18103;52.246;8.052;2022-11-14T01:49:25;100570.38;;;5.21;82.40
31483;BME280;18103;52.246;8.052;2022-11-14T01:52:02;100571.53;;;5.16;82.42
31483;BME280;18103;52.246;8.052;2022-11-14T01:54:33;100558.44;;;5.16;82.20
31483;BME280;18103;52.246;8.052;2022-11-14T01:57:00;100561.91;;;5.16;82.28
31483;BME280;18103;52.246;8.052;2022-11-14T01:59:30;100557.53;;;5.17;82.17
31483;BME280;18103;52.246;8.052;2022-11-14T02:02:01;100549.00;;;5.13;82.49
31483;BME280;18103;52.246;8.052;2022-11-14T02:04:32;100550.34;;;5.20;82.41
31483;BME280;18103;52.246;8.052;2022-11-14T02:07:00;100550.59;;;5.16;82.05
31483;BME280;18103;52.246;8.052;2022-11-14T02:09:29;100546.97;;;5.18;82.19
31483;BME280;18103;52.246;8.052;2022-11-14T02:11:57;100543.53;;;5.18;81.96
31483;BME280;18103;52.246;8.052;2022-11-14T02:14:25;100544.66;;;5.12;82.03
31483;BME280;18103;52.246;8.052;2022-11-14T02:16:51;100538.06;;;5.05;82.11
31483;BME280;18103;52.246;8.052;2022-11-14T02:19:17;100537.94;;;5.08;82.10
31483;BME280;18103;52.246;8.052;2022-11-14T02:21:42;100539.69;;;5.07;82.37
31483;BME280;18103;52.246;8.052;2022-11-14T02:24:11;100534.09;;;4.97;82.27
31483;BME280;18103;52.246;8.052;2022-11-14T02:26:39;100531.00;;;5.07;81.84
31483;BME280;18103;52.246;8.052;2022-11-14T02:29:07;100528.63;;;5.02;81.81
31483;BME280;18103;52.246;8.052;2022-11-14T02:31:33;100532.00;;;5.04;82.31
31483;BME280;18103;52.246;8.052;2022-11-14T02:33:59;100527.25;;;4.95;82.57
31483;BME280;18103;52.246;8.052;2022-11-14T02:36:24;100521.19;;;4.94;82.17
31483;BME280;18103;52.246;8.052;2022-11-14T02:38:50;100513.00;;;5.01;82.22
31483;BME280;18103;52.246;8.052;2022-11-14T02:41:15;100507.31;;;4.92;82.30
31483;BME280;18103;52.246;8.052;2022-11-14T02:43:41;100507.66;;;4.86;82.49
31483;BME280;18103;52.246;8.052;2022-11-14T02:46:06;100502.41;;;4.86;82.55
31483;BME280;18103;52.246;8.052;2022-11-14T02:48:31;100515.16;;;4.92;81.79
31483;BME280;18103;52.246;8.052;2022-11-14T02:50:57;100510.81;;;4.93;82.30
31483;BME280;18103;52.246;8.052;2022-11-14T02:53:22;100500.72;;;4.85;82.64
31483;BME280;18103;52.246;8.052;2022-11-14T02:55:48;100502.25;;;4.89;82.45
31483;BME280;18103;52.246;8.052;2022-11-14T02:58:13;100499.88;;;4.85;82.07
31483;BME280;18103;52.246;8.052;2022-11-14T03:00:38;100503.19;;;4.88;82.24
31483;BME280;18103;52.246;8.052;2022-11-14T03:03:04;100494.50;;;4.88;81.97
31483;BME280;18103;52.246;8.052;2022-11-14T03:05:29;100501.72;;;4.83;82.53
31483;BME280;18103;52.246;8.052;2022-11-14T03:07:55;100495.50;;;4.85;82.28
31483;BME280;18103;52.246;8.052;2022-11-14T03:10:22;100492.03;;;4.85;82.61
31483;BME280;18103;52.246;8.052;2022-11-14T03:12:52;100491.34;;;4.81;82.81
31483;BME280;18103;52.246;8.052;2022-11-14T03:15:18;100496.56;;;4.81;82.62
31483;BME280;18103;52.246;8.052;2022-11-14T03:17:43;100490.44;;;4.82;82.95
31483;BME280;18103;52.246;8.052;2022-11-14T03:20:09;100487.16;;;4.78;82.65
31483;BME280;18103;52.246;8.052;2022-11-14T03:22:34;100488.06;;;4.77;82.82
31483;BME280;18103;52.246;8.052;2022-11-14T03:25:00;100491.13;;;4.86;82.37
31483;BME280;18103;52.246;8.052;2022-11-14T03:27:25;100493.66;;;4.87;82.58
31483;BME280;18103;52.246;8.052;2022-11-14T03:29:50;100495.66;;;4.82;82.75
31483;BME280;18103;52.246;8.052;2022-11-14T03:32:16;100497.00;;;4.73;82.94
31483;BME280;18103;52.246;8.052;2022-11-14T03:34:42;100502.31;;;4.72;83.31
31483;BME280;18103;52.246;8.052;2022-11-14T03:37:08;100499.34;;;4.78;82.93
31483;BME280;18103;52.246;8.052;2022-11-14T03:39:33;100502.88;;;4.77;82.82
31483;BME280;18103;52.246;8.052;2022-11-14T03:41:59;100497.03;;;4.89;81.97
31483;BME280;18103;52.246;8.052;2022-11-14T03:44:24;100495.66;;;4.82;82.85
31483;BME280;18103;52.246;8.052;2022-11-14T03:46:50;100487.97;;;4.79;82.72
31483;BME280;18103;52.246;8.052;2022-11-14T03:49:16;100485.53;;;4.76;83.01
31483;BME280;18103;52.246;8.052;2022-11-14T03:51:42;100480.78;;;4.67;83.30
31483;BME280;18103;52.246;8.052;2022-11-14T03:54:07;100474.38;;;4.72;83.36
31483;BME280;18103;52.246;8.052;2022-11-14T03:56:32;100467.88;;;4.63;83.75
31483;BME280;18103;52.246;8.052;2022-11-14T03:58:58;100458.84;;;4.69;83.30
31483;BME280;18103;52.246;8.052;2022-11-14T04:01:23;100463.38;;;4.66;83.65
31483;BME280;18103;52.246;8.052;2022-11-14T04:03:49;100461.00;;;4.78;82.93
31483;BME280;18103;52.246;8.052;2022-11-14T04:06:14;100452.34;;;4.60;83.66
31483;BME280;18103;52.246;8.052;2022-11-14T04:08:40;100454.16;;;4.58;83.29
31483;BME280;18103;52.246;8.052;2022-11-14T04:11:06;100442.81;;;4.59;83.45
31483;BME280;18103;52.246;8.052;2022-11-14T04:13:31;100446.25;;;4.60;83.10
31483;BME280;18103;52.246;8.052;2022-11-14T04:15:57;100443.81;;;4.57;83.63
31483;BME280;18103;52.246;8.052;2022-11-14T04:18:24;100442.81;;;4.59;83.00
31483;BME280;18103;52.246;8.052;2022-11-14T04:20:50;100431.28;;;4.46;83.97
31483;BME280;18103;52.246;8.052;2022-11-14T04:23:16;100433.59;;;4.52;83.54
31483;BME280;18103;52.246;8.052;2022-11-14T04:25:43;100426.59;;;4.53;83.61
31483;BME280;18103;52.246;8.052;2022-11-14T04:28:08;100431.81;;;4.53;83.36
31483;BME280;18103;52.246;8.052;2022-11-14T04:30:34;100422.59;;;4.45;83.80
31483;BME280;18103;52.246;8.052;2022-11-14T04:32:59;100428.38;;;4.52;83.62
31483;BME280;18103;52.246;8.052;2022-11-14T04:35:24;100426.53;;;4.37;84.43
31483;BME280;18103;52.246;8.052;2022-11-14T04:37:50;100422.47;;;4.31;85.18
31483;BME280;18103;52.246;8.052;2022-11-14T04:40:15;100420.63;;;4.33;84.54
31483;BME280;18103;52.246;8.052;2022-11-14T04:42:41;100413.56;;;4.35;84.34
31483;BME280;18103;52.246;8.052;2022-11-14T04:45:06;100417.25;;;4.31;84.98
31483;BME280;18103;52.246;8.052;2022-11-14T04:47:32;100416.72;;;4.24;85.17
31483;BME280;18103;52.246;8.052;2022-11-14T04:49:58;100417.47;;;4.26;85.30
31483;BME280;18103;52.246;8.052;2022-11-14T04:52:23;100413.84;;;4.29;84.66
31483;BME280;18103;52.246;8.052;2022-11-14T04:54:48;100406.03;;;4.29;84.66
31483;BME280;18103;52.246;8.052;2022-11-14T04:57:14;100406.25;;;4.24;85.72
31483;BME280;18103;52.246;8.052;2022-11-14T04:59:40;100399.78;;;4.32;84.83
31483;BME280;18103;52.246;8.052;2022-11-14T05:02:06;100394.81;;;4.27;85.38
31483;BME280;18103;52.246;8.052;2022-11-14T05:04:31;100393.81;;;4.30;85.04
31483;BME280;18103;52.246;8.052;2022-11-14T05:06:57;100390.84;;;4.20;85.40
31483;BME280;18103;52.246;8.052;2022-11-14T05:09:22;100385.75;;;4.17;85.44
31483;BME280;18103;52.246;8.052;2022-11-14T05:11:47;100381.97;;;4.22;85.18
31483;BME280;18103;52.246;8.052;2022-11-14T05:14:13;100384.06;;;4.16;85.54
31483;BME280;18103;52.246;8.052;2022-11-14T05:16:38;100383.28;;;4.14;85.99
31483;BME280;18103;52.246;8.052;2022-11-14T05:19:04;100376.81;;;4.21;85.36
31483;BME280;18103;52.246;8.052;2022-11-14T05:21:29;100380.13;;;4.24;85.71
31483;BME280;18103;52.246;8.052;2022-11-14T05:23:54;100377.38;;;4.27;85.09
31483;BME280;18103;52.246;8.052;2022-11-14T05:26:20;100377.19;;;4.31;85.10
31483;BME280;18103;52.246;8.052;2022-11-14T05:28:45;100376.66;;;4.24;85.04
31483;BME280;18103;52.246;8.052;2022-11-14T05:31:13;100375.47;;;4.14;85.55
31483;BME280;18103;52.246;8.052;2022-11-14T05:33:39;100364.47;;;4.07;85.79
31483;BME280;18103;52.246;8.052;2022-11-14T05:36:07;100370.41;;;4.10;86.09
31483;BME280;18103;52.246;8.052;2022-11-14T05:38:33;100365.50;;;4.04;86.14
31483;BME280;18103;52.246;8.052;2022-11-14T05:40:59;100356.13;;;4.00;86.19
31483;BME280;18103;52.246;8.052;2022-11-14T05:43:27;100362.50;;;3.94;86.63
31483;BME280;18103;52.246;8.052;2022-11-14T05:45:58;100365.03;;;3.96;86.56
31483;BME280;18103;52.246;8.052;2022-11-14T05:48:23;100354.50;;;3.98;86.24
31483;BME280;18103;52.246;8.052;2022-11-14T05:50:53;100354.34;;;4.01;86.44
31483;BME280;18103;52.246;8.052;2022-11-14T05:53:18;100357.34;;;3.93;86.71
31483;BME280;18103;52.246;8.052;2022-11-14T05:55:44;100356.13;;;4.00;86.30
31483;BME280;18103;52.246;8.052;2022-11-14T05:58:09;100362.31;;;4.15;85.69
31483;BME280;18103;52.246;8.052;2022-11-14T06:00:34;100365.00;;;4.14;86.29
31483;BME280;18103;52.246;8.052;2022-11-14T06:03:00;100362.94;;;4.20;85.34
31483;BME280;18103;52.246;8.052;2022-11-14T06:05:25;100366.78;;;4.13;85.64
31483;BME280;18103;52.246;8.052;2022-11-14T06:07:55;100367.09;;;4.07;85.74
31483;BME280;18103;52.246;8.052;2022-11-14T06:10:22;100369.47;;;3.94;86.32
31483;BME280;18103;52.246;8.052;2022-11-14T06:12:47;100369.78;;;4.05;86.12
31483;BME280;18103;52.246;8.052;2022-11-14T06:15:16;100360.94;;;4.08;86.09
31483;BME280;18103;52.246;8.052;2022-11-14T06:17:42;100365.94;;;4.13;85.78
31483;BME280;18103;52.246;8.052;2022-11-14T06:20:08;100368.16;;;4.03;86.11
31483;BME280;18103;52.246;8.052;2022-11-14T06:22:33;100375.16;;;4.02;86.25
31483;BME280;18103;52.246;8.052;2022-11-14T06:25:02;100380.16;;;4.07;85.72
31483;BME280;18103;52.246;8.052;2022-11-14T06:27:28;100368.63;;;4.11;85.44
31483;BME280;18103;52.246;8.052;2022-11-14T06:29:54;100374.47;;;4.16;85.12
31483;BME280;18103;52.246;8.052;2022-11-14T06:32:19;100378.00;;;4.15;85.06
31483;BME280;18103;52.246;8.052;2022-11-14T06:34:48;100384.00;;;4.17;84.66
31483;BME280;18103;52.246;8.052;2022-11-14T06:37:13;100381.06;;;4.23;84.38
31483;BME280;18103;52.246;8.052;2022-11-14T06:39:38;100381.22;;;4.20;84.70
31483;BME280;18103;52.246;8.052;2022-11-14T06:42:04;100383.06;;;4.18;84.66
31483;BME280;18103;52.246;8.052;2022-11-14T06:44:29;100388.72;;;4.26;84.20
31483;BME280;18103;52.246;8.052;2022-11-14T06:46:54;100376.00;;;4.20;83.96
31483;BME280;18103;52.246;8.052;2022-11-14T06:49:20;100370.16;;;4.15;84.47
31483;BME280;18103;52.246;8.052;2022-11-14T06:51:46;100371.09;;;4.14;83.99
31483;BME280;18103;52.246;8.052;2022-11-14T06:54:11;100368.50;;;4.14;84.17
31483;BME280;18103;52.246;8.052;2022-11-14T06:56:37;100375.16;;;4.20;83.64
31483;BME280;18103;52.246;8.052;2022-11-14T06:59:02;100369.16;;;4.18;83.77
31483;BME280;18103;52.246;8.052;2022-11-14T07:01:28;100376.06;;;4.19;84.02
31483;BME280;18103;52.246;8.052;2022-11-14T07:03:53;100369.25;;;4.16;83.83
31483;BME280;18103;52.246;8.052;2022-11-14T07:06:23;100365.00;;;4.14;83.92
31483;BME280;18103;52.246;8.052;2022-11-14T07:08:50;100367.53;;;4.15;84.18
31483;BME280;18103;52.246;8.052;2022-11-14T07:11:18;100356.19;;;4.16;84.12
31483;BME280;18103;52.246;8.052;2022-11-14T07:13:57;100352.56;;;4.19;84.33
31483;BME280;18103;52.246;8.052;2022-11-14T07:16:28;100350.88;;;4.18;84.81
31483;BME280;18103;52.246;8.052;2022-11-14T07:18:54;100357.72;;;4.20;84.63
31483;BME280;18103;52.246;8.052;2022-11-14T07:21:20;100353.94;;;4.26;83.94
31483;BME280;18103;52.246;8.052;2022-11-14T07:23:46;100354.94;;;4.23;83.93
31483;BME280;18103;52.246;8.052;2022-11-14T07:26:11;100353.59;;;4.32;84.09
31483;BME280;18103;52.246;8.052;2022-11-14T07:28:41;100362.31;;;4.33;84.17
31483;BME280;18103;52.246;8.052;2022-11-14T07:31:13;100352.84;;;4.30;84.07
31483;BME280;18103;52.246;8.052;2022-11-14T07:33:39;100354.63;;;4.30;84.49
31483;BME280;18103;52.246;8.052;2022-11-14T07:36:06;100339.53;;;4.35;84.17
31483;BME280;18103;52.246;8.052;2022-11-14T07:38:32;100343.50;;;4.42;84.16
31483;BME280;18103;52.246;8.052;2022-11-14T07:41:01;100340.34;;;4.53;84.11
31483;BME280;18103;52.246;8.052;2022-11-14T07:43:27;100347.78;;;4.60;83.98
31483;BME280;18103;52.246;8.052;2022-11-14T07:45:57;100347.91;;;4.57;84.12
31483;BME280;18103;52.246;8.052;2022-11-14T07:48:22;100352.06;;;4.61;83.98
31483;BME280;18103;52.246;8.052;2022-11-14T07:50:48;100351.84;;;4.66;84.31
31483;BME280;18103;52.246;8.052;2022-11-14T07:53:13;100350.47;;;4.75;83.93
31483;BME280;18103;52.246;8.052;2022-11-14T07:55:39;100354.34;;;4.84;84.20
31483;BME280;18103;52.246;8.052;2022-11-14T07:58:05;100345.16;;;4.92;84.15
31483;BME280;18103;52.246;8.052;2022-11-14T08:00:30;100339.94;;;5.08;83.85
31483;BME280;18103;52.246;8.052;2022-11-14T08:02:56;100343.16;;;5.13;83.83
31483;BME280;18103;52.246;8.052;2022-11-14T08:05:21;100338.91;;;5.27;82.79
31483;BME280;18103;52.246;8.052;2022-11-14T08:07:51;100336.47;;;5.24;82.75
31483;BME280;18103;52.246;8.052;2022-11-14T08:10:17;100337.38;;;5.23;83.06
31483;BME280;18103;52.246;8.052;2022-11-14T08:12:43;100343.47;;;5.23;83.13
31483;BME280;18103;52.246;8.052;2022-11-14T08:15:10;100344.91;;;5.29;82.85
31483;BME280;18103;52.246;8.052;2022-11-14T08:17:36;100334.00;;;5.37;82.65
31483;BME280;18103;52.246;8.052;2022-11-14T08:20:03;100338.31;;;5.38;82.34
31483;BME280;18103;52.246;8.052;2022-11-14T08:22:28;100339.03;;;5.56;82.20
31483;BME280;18103;52.246;8.052;2022-11-14T08:24:55;100344.56;;;5.65;81.87
31483;BME280;18103;52.246;8.052;2022-11-14T08:27:21;100343.81;;;5.63;81.74
31483;BME280;18103;52.246;8.052;2022-11-14T08:29:46;100339.34;;;5.65;81.44
31483;BME280;18103;52.246;8.052;2022-11-14T08:32:12;100342.66;;;5.83;81.24
31483;BME280;18103;52.246;8.052;2022-11-14T08:34:37;100348.31;;;5.76;81.43
31483;BME280;18103;52.246;8.052;2022-11-14T08:37:03;100349.81;;;5.65;81.48
31483;BME280;18103;52.246;8.052;2022-11-14T08:39:28;100355.53;;;5.72;81.36
31483;BME280;18103;52.246;8.052;2022-11-14T08:41:53;100350.81;;;5.93;80.79
31483;BME280;18103;52.246;8.052;2022-11-14T08:44:19;100351.88;;;6.05;80.94
31483;BME280;18103;52.246;8.052;2022-11-14T08:46:44;100353.19;;;6.12;80.02
31483;BME280;18103;52.246;8.052;2022-11-14T08:49:10;100358.94;;;6.19;80.20
31483;BME280;18103;52.246;8.052;2022-11-14T08:51:35;100348.44;;;6.05;80.23
31483;BME280;18103;52.246;8.052;2022-11-14T08:54:01;100355.00;;;6.26;79.67
31483;BME280;18103;52.246;8.052;2022-11-14T08:56:26;100345.09;;;6.31;79.44
31483;BME280;18103;52.246;8.052;2022-11-14T08:58:52;100342.16;;;6.36;80.07
31483;BME280;18103;52.246;8.052;2022-11-14T09:01:20;100343.22;;;6.48;79.12
31483;BME280;18103;52.246;8.052;2022-11-14T09:03:48;100339.06;;;6.58;79.40
31483;BME280;18103;52.246;8.052;2022-11-14T09:06:14;100341.13;;;6.67;78.60
31483;BME280;18103;52.246;8.052;2022-11-14T09:08:39;100344.88;;;6.49;79.31
31483;BME280;18103;52.246;8.052;2022-11-14T09:11:04;100335.44;;;6.61;78.65
31483;BME280;18103;52.246;8.052;2022-11-14T09:13:34;100337.38;;;6.72;78.75
31483;BME280;18103;52.246;8.052;2022-11-14T09:16:02;100343.06;;;6.78;78.84
31483;BME280;18103;52.246;8.052;2022-11-14T09:18:29;100339.75;;;6.62;78.85
31483;BME280;18103;52.246;8.052;2022-11-14T09:20:59;100341.97;;;6.68;78.73
31483;BME280;18103;52.246;8.052;2022-11-14T09:23:25;100337.19;;;6.60;79.00
31483;BME280;18103;52.246;8.052;2022-11-14T09:25:50;100339.41;;;6.81;78.49
31483;BME280;18103;52.246;8.052;2022-11-14T09:28:16;100343.56;;;6.71;78.56
31483;BME280;18103;52.246;8.052;2022-11-14T09:30:41;100326.78;;;6.73;78.43
31483;BME280;18103;52.246;8.052;2022-11-14T09:33:06;100325.47;;;6.80;78.62
31483;BME280;18103;52.246;8.052;2022-11-14T09:35:32;100324.00;;;6.62;78.71
31483;BME280;18103;52.246;8.052;2022-11-14T09:38:04;100323.03;;;6.77;79.01
31483;BME280;18103;52.246;8.052;2022-11-14T09:40:46;100318.31;;;6.82;78.87
31483;BME280;18103;52.246;8.052;2022-11-14T09:43:52;100318.78;;;6.89;78.52
31483;BME280;18103;52.246;8.052;2022-11-14T09:46:25;100332.47;;;6.80;79.23
31483;BME280;18103;52.246;8.052;2022-11-14T09:48:52;100313.59;;;7.02;78.64
31483;BME280;18103;52.246;8.052;2022-11-14T09:51:20;100300.84;;;7.23;78.32
31483;BME280;18103;52.246;8.052;2022-11-14T09:54:05;100308.91;;;7.34;78.03
31483;BME280;18103;52.246;8.052;2022-11-14T09:56:35;100299.56;;;7.43;77.73
31483;BME280;18103;52.246;8.052;2022-11-14T09:59:00;100301.78;;;7.49;77.63
31483;BME280;18103;52.246;8.052;2022-11-14T10:06:46;100283.63;;;7.72;76.56
31483;BME280;18103;52.246;8.052;2022-11-14T10:09:38;100289.00;;;7.70;76.69
31483;BME280;18103;52.246;8.052;2022-11-14T10:12:39;100271.47;;;7.71;76.24
31483;BME280;18103;52.246;8.052;2022-11-14T10:15:16;100272.38;;;7.96;76.10
31483;BME280;18103;52.246;8.052;2022-11-14T10:20:41;100266.28;;;8.21;75.60
31483;BME280;18103;52.246;8.052;2022-11-14T10:24:05;100259.22;;;8.34;74.70
31483;BME280;18103;52.246;8.052;2022-11-14T10:26:29;100244.06;;;8.25;74.89
31483;BME280;18103;52.246;8.052;2022-11-14T10:35:02;100252.69;;;8.40;74.21
31483;BME280;18103;52.246;8.052;2022-11-14T10:37:30;100239.00;;;8.35;74.45
31483;BME280;18103;52.246;8.052;2022-11-14T10:42:50;100237.88;;;8.76;73.47
31483;BME280;18103;52.246;8.052;2022-11-14T10:45:35;100216.47;;;8.81;73.12
31483;BME280;18103;52.246;8.052;2022-11-14T10:48:28;100225.59;;;8.88;72.72
31483;BME280;18103;52.246;8.052;2022-11-14T10:51:11;100239.63;;;9.24;72.58
31483;BME280;18103;52.246;8.052;2022-11-14T10:53:54;100237.97;;;9.34;71.65
31483;BME280;18103;52.246;8.052;2022-11-14T10:56:22;100237.66;;;9.15;72.18
31483;BME280;18103;52.246;8.052;2022-11-14T10:58:48;100250.28;;;9.22;72.08
31483;BME280;18103;52.246;8.052;2022-11-14T11:04:28;100238.09;;;9.33;71.66
31483;BME280;18103;52.246;8.052;2022-11-14T11:07:17;100245.72;;;9.24;71.33
31483;BME280;18103;52.246;8.052;2022-11-14T11:10:03;100249.53;;;9.20;71.72
31483;BME280;18103;52.246;8.052;2022-11-14T11:12:50;100243.38;;;9.44;70.50
31483;BME280;18103;52.246;8.052;2022-11-14T11:17:55;100232.53;;;9.60;70.67
31483;BME280;18103;52.246;8.052;2022-11-14T11:20:38;100245.50;;;9.86;70.17
31483;BME280;18103;52.246;8.052;2022-11-14T11:23:16;100242.50;;;9.90;70.22
31483;BME280;18103;52.246;8.052;2022-11-14T11:25:42;100235.56;;;9.78;69.90
31483;BME280;18103;52.246;8.052;2022-11-14T11:28:19;100223.59;;;9.85;69.79
31483;BME280;18103;52.246;8.052;2022-11-14T11:30:56;100229.56;;;10.10;69.92
31483;BME280;18103;52.246;8.052;2022-11-14T11:33:42;100225.84;;;10.01;69.51
31483;BME280;18103;52.246;8.052;2022-11-14T11:36:17;100223.22;;;10.13;68.89
31483;BME280;18103;52.246;8.052;2022-11-14T11:38:44;100227.03;;;10.20;69.01
31483;BME280;18103;52.246;8.052;2022-11-14T11:41:28;100209.78;;;10.04;69.69
31483;BME280;18103;52.246;8.052;2022-11-14T11:44:02;100221.91;;;10.07;69.16
31483;BME280;18103;52.246;8.052;2022-11-14T11:46:37;100214.97;;;10.06;69.50
31483;BME280;18103;52.246;8.052;2022-11-14T11:49:56;100205.59;;;10.13;69.75
31483;BME280;18103;52.246;8.052;2022-11-14T11:52:01;100201.75;;;10.28;68.77
31483;BME280;18103;52.246;8.052;2022-11-14T11:54:35;100202.09;;;10.24;68.85
31483;BME280;18103;52.246;8.052;2022-11-14T11:57:14;100211.44;;;10.28;68.55
31483;BME280;18103;52.246;8.052;2022-11-14T11:59:48;100203.75;;;10.59;68.19
31483;BME280;18103;52.246;8.052;2022-11-14T12:02:24;100210.81;;;10.58;68.15
31483;BME280;18103;52.246;8.052;2022-11-14T12:04:50;100199.19;;;10.61;67.94
31483;BME280;18103;52.246;8.052;2022-11-14T12:07:19;100209.25;;;10.67;67.84
31483;BME280;18103;52.246;8.052;2022-11-14T12:09:45;100204.50;;;10.50;68.26
31483;BME280;18103;52.246;8.052;2022-11-14T12:14:54;100199.41;;;10.69;67.62
31483;BME280;18103;52.246;8.052;2022-11-14T12:17:52;100197.47;;;10.71;67.70
31483;BME280;18103;52.246;8.052;2022-11-14T12:31:45;100177.00;;;11.17;64.30
31483;BME280;18103;52.246;8.052;2022-11-14T12:34:26;100187.41;;;11.40;64.07
31483;BME280;18103;52.246;8.052;2022-11-14T12:36:54;100184.03;;;11.28;63.67
31483;BME280;18103;52.246;8.052;2022-11-14T12:39:27;100184.00;;;11.49;64.00
31483;BME280;18103;52.246;8.052;2022-11-14T12:42:02;100175.72;;;11.63;63.79
31483;BME280;18103;52.246;8.052;2022-11-14T13:00:16;100142.66;;;11.79;61.78
31483;BME280;18103;52.246;8.052;2022-11-14T13:02:51;100141.13;;;11.45;62.84
31483;BME280;18103;52.246;8.052;2022-11-14T13:05:39;100138.44;;;11.36;62.88
31483;BME280;18103;52.246;8.052;2022-11-14T13:11:32;100142.75;;;11.68;62.81
31483;BME280;18103;52.246;8.052;2022-11-14T13:14:18;100130.44;;;11.88;62.40
31483;BME280;18103;52.246;8.052;2022-11-14T13:17:28;100128.00;;;11.65;62.85
31483;BME280;18103;52.246;8.052;2022-11-14T13:28:48;100121.13;;;11.84;62.94
31483;BME280;18103;52.246;8.052;2022-11-14T13:36:10;100099.47;;;12.00;62.56
31483;BME280;18103;52.246;8.052;2022-11-14T13:50:16;100100.91;;;11.73;63.30
31483;BME280;18103;52.246;8.052;2022-11-14T13:52:45;100099.22;;;11.72;63.49
31483;BME280;18103;52.246;8.052;2022-11-14T13:56:12;100098.13;;;11.74;63.63
31483;BME280;18103;52.246;8.052;2022-11-14T14:04:39;100105.38;;;11.82;63.69
31483;BME280;18103;52.246;8.052;2022-11-14T14:16:03;100095.50;;;11.43;64.61
31483;BME280;18103;52.246;8.052;2022-11-14T14:19:01;100089.31;;;11.33;64.96
31483;BME280;18103;52.246;8.052;2022-11-14T14:30:07;100080.19;;;11.16;65.48
31483;BME280;18103;52.246;8.052;2022-11-14T14:32:33;100072.31;;;11.26;65.03
31483;BME280;18103;52.246;8.052;2022-11-14T14:34:59;100060.66;;;11.28;65.08
31483;BME280;18103;52.246;8.052;2022-11-14T14:37:28;100051.16;;;10.95;65.52
31483;BME280;18103;52.246;8.052;2022-11-14T14:40:20;100059.22;;;10.93;66.11
31483;BME280;18103;52.246;8.052;2022-11-14T14:42:46;100052.03;;;10.95;65.78
31483;BME280;18103;52.246;8.052;2022-11-14T14:45:16;100056.00;;;11.11;65.57
31483;BME280;18103;52.246;8.052;2022-11-14T14:47:48;100054.97;;;11.02;65.82
31483;BME280;18103;52.246;8.052;2022-11-14T14:50:20;100060.38;;;11.01;65.97
31483;BME280;18103;52.246;8.052;2022-11-14T14:53:00;100064.66;;;10.92;66.11